sensor_id;sensor_type;location;lat;lon;timestamp;pressure;altitude;pressure_sealevel;temperature;humidity
6216;BME280;3141;49.234;9.326;2023-02-10T00:00:11;101570.69;;;-1.07;72.04
6216;BME280;3141;49.234;9.326;2023-02-10T00:00:53;101563.00;;;-1.12;72.91
6216;BME280;3141;49.234;9.326;2023-02-10T00:01:36;101562.22;;;-1.16;72.88
6216;BME280;3141;49.234;9.326;2023-02-10T00:02:18;101559.53;;;-1.11;73.22
6216;BME280;3141;49.234;9.326;2023-02-10T00:03:00;101555.28;;;-1.15;73.33
6216;BME280;3141;49.234;9.326;2023-02-10T00:03:43;101555.28;;;-1.15;73.71
6216;BME280;3141;49.234;9.326;2023-02-10T00:04:25;101557.13;;;-1.20;73.80
6216;BME280;3141;49.234;9.326;2023-02-10T00:05:08;101553.59;;;-1.16;73.78
6216;BME280;3141;49.234;9.326;2023-02-10T00:05:50;101552.91;;;-1.24;73.66
6216;BME280;3141;49.234;9.326;2023-02-10T00:06:33;101560.63;;;-1.21;73.96
6216;BME280;3141;49.234;9.326;2023-02-10T00:07:15;101559.66;;;-1.17;73.75
6216;BME280;3141;49.234;9.326;2023-02-10T00:07:57;101558.84;;;-1.19;73.95
6216;BME280;3141;49.234;9.326;2023-02-10T00:08:40;101559.81;;;-1.23;73.69
6216;BME280;3141;49.234;9.326;2023-02-10T00:09:22;101553.72;;;-1.22;73.79
6216;BME280;3141;49.234;9.326;2023-02-10T00:10:05;101553.88;;;-1.28;74.17
6216;BME280;3141;49.234;9.326;2023-02-10T00:10:47;101556.34;;;-1.24;74.19
6216;BME280;3141;49.234;9.326;2023-02-10T00:11:32;101560.63;;;-1.21;73.69
6216;BME280;3141;49.234;9.326;2023-02-10T00:12:36;101556.22;;;-1.17;73.43
6216;BME280;3141;49.234;9.326;2023-02-10T00:13:19;101548.53;;;-1.22;74.06
6216;BME280;3141;49.234;9.326;2023-02-10T00:14:02;101558.91;;;-1.22;73.79
6216;BME280;3141;49.234;9.326;2023-02-10T00:14:44;101559.59;;;-1.14;73.24
6216;BME280;3141;49.234;9.326;2023-02-10T00:15:26;101557.72;;;-1.07;73.12
6216;BME280;3141;49.234;9.326;2023-02-10T00:16:11;101554.22;;;-1.06;72.89
6216;BME280;3141;49.234;9.326;2023-02-10T00:16:54;101559.47;;;-1.09;72.58
6216;BME280;3141;49.234;9.326;2023-02-10T00:17:37;101561.19;;;-1.08;72.79
6216;BME280;3141;49.234;9.326;2023-02-10T00:18:20;101560.34;;;-1.09;72.77
6216;BME280;3141;49.234;9.326;2023-02-10T00:19:03;101559.34;;;-1.05;72.47
6216;BME280;3141;49.234;9.326;2023-02-10T00:19:45;101566.31;;;-1.05;72.23
6216;BME280;3141;49.234;9.326;2023-02-10T00:20:27;101565.38;;;-1.03;71.99
6216;BME280;3141;49.234;9.326;2023-02-10T00:21:13;101566.31;;;-1.05;72.10
6216;BME280;3141;49.234;9.326;2023-02-10T00:21:57;101577.41;;;-0.99;71.59
6216;BME280;3141;49.234;9.326;2023-02-10T00:22:40;101578.34;;;-1.03;71.69
6216;BME280;3141;49.234;9.326;2023-02-10T00:23:22;101576.66;;;-1.04;71.63
6216;BME280;3141;49.234;9.326;2023-02-10T00:24:05;101574.88;;;-1.03;71.08
6216;BME280;3141;49.234;9.326;2023-02-10T00:24:47;101587.91;;;-1.05;71.09
6216;BME280;3141;49.234;9.326;2023-02-10T00:25:29;101588.06;;;-1.11;71.09
6216;BME280;3141;49.234;9.326;2023-02-10T00:26:12;101581.16;;;-1.12;71.08
6216;BME280;3141;49.234;9.326;2023-02-10T00:26:55;101590.47;;;-1.03;71.09
6216;BME280;3141;49.234;9.326;2023-02-10T00:27:37;101580.09;;;-1.03;70.55
6216;BME280;3141;49.234;9.326;2023-02-10T00:28:19;101574.28;;;-1.13;70.50
6216;BME280;3141;49.234;9.326;2023-02-10T00:29:02;101585.47;;;-1.11;71.11
6216;BME280;3141;49.234;9.326;2023-02-10T00:29:45;101587.09;;;-1.07;70.85
6216;BME280;3141;49.234;9.326;2023-02-10T00:30:30;101580.88;;;-1.00;70.83
6216;BME280;3141;49.234;9.326;2023-02-10T00:31:14;101583.50;;;-1.01;71.06
6216;BME280;3141;49.234;9.326;2023-02-10T00:31:57;101593.09;;;-1.05;71.11
6216;BME280;3141;49.234;9.326;2023-02-10T00:32:39;101594.81;;;-1.04;71.34
6216;BME280;3141;49.234;9.326;2023-02-10T00:33:22;101591.38;;;-1.04;71.54
6216;BME280;3141;49.234;9.326;2023-02-10T00:34:05;101597.22;;;-0.95;71.16
6216;BME280;3141;49.234;9.326;2023-02-10T00:34:47;101598.78;;;-0.89;71.36
6216;BME280;3141;49.234;9.326;2023-02-10T00:35:29;101600.56;;;-0.91;71.57
6216;BME280;3141;49.234;9.326;2023-02-10T00:36:14;101597.22;;;-0.96;71.65
6216;BME280;3141;49.234;9.326;2023-02-10T00:36:56;101599.88;;;-0.99;71.85
6216;BME280;3141;49.234;9.326;2023-02-10T00:37:39;101593.06;;;-1.02;72.05
6216;BME280;3141;49.234;9.326;2023-02-10T00:38:21;101591.19;;;-0.97;72.04
6216;BME280;3141;49.234;9.326;2023-02-10T00:39:04;101592.19;;;-1.02;71.64
6216;BME280;3141;49.234;9.326;2023-02-10T00:39:46;101600.00;;;-1.04;71.62
6216;BME280;3141;49.234;9.326;2023-02-10T00:40:29;101588.84;;;-1.07;71.96
6216;BME280;3141;49.234;9.326;2023-02-10T00:41:17;101598.28;;;-1.05;71.92
6216;BME280;3141;49.234;9.326;2023-02-10T00:42:00;101594.03;;;-1.07;72.07
6216;BME280;3141;49.234;9.326;2023-02-10T00:42:42;101593.34;;;-1.14;72.31
6216;BME280;3141;49.234;9.326;2023-02-10T00:43:24;101587.41;;;-1.21;72.41
6216;BME280;3141;49.234;9.326;2023-02-10T00:44:07;101597.00;;;-1.24;72.68
6216;BME280;3141;49.234;9.326;2023-02-10T00:44:49;101593.63;;;-1.26;73.05
6216;BME280;3141;49.234;9.326;2023-02-10T00:45:32;101596.25;;;-1.29;73.74
6216;BME280;3141;49.234;9.326;2023-02-10T00:46:17;101594.78;;;-1.39;73.80
6216;BME280;3141;49.234;9.326;2023-02-10T00:47:00;101593.22;;;-1.48;74.24
6216;BME280;3141;49.234;9.326;2023-02-10T00:47:42;101594.19;;;-1.50;74.62
6216;BME280;3141;49.234;9.326;2023-02-10T00:48:25;101587.25;;;-1.51;74.76
6216;BME280;3141;49.234;9.326;2023-02-10T00:49:09;101596.88;;;-1.56;74.73
6216;BME280;3141;49.234;9.326;2023-02-10T00:49:52;101588.19;;;-1.55;74.66
6216;BME280;3141;49.234;9.326;2023-02-10T00:50:34;101592.56;;;-1.56;74.47
6216;BME280;3141;49.234;9.326;2023-02-10T00:51:17;101593.38;;;-1.55;74.35
6216;BME280;3141;49.234;9.326;2023-02-10T00:51:59;101582.78;;;-1.45;74.21
6216;BME280;3141;49.234;9.326;2023-02-10T00:52:42;101594.84;;;-1.42;73.80
6216;BME280;3141;49.234;9.326;2023-02-10T00:53:25;101594.13;;;-1.49;73.89
6216;BME280;3141;49.234;9.326;2023-02-10T00:54:09;101592.13;;;-1.38;73.43
6216;BME280;3141;49.234;9.326;2023-02-10T00:54:52;101602.34;;;-1.30;73.15
6216;BME280;3141;49.234;9.326;2023-02-10T00:55:35;101598.03;;;-1.30;72.86
6216;BME280;3141;49.234;9.326;2023-02-10T00:56:18;101600.47;;;-1.24;72.92
6216;BME280;3141;49.234;9.326;2023-02-10T00:57:01;101606.44;;;-1.20;72.51
6216;BME280;3141;49.234;9.326;2023-02-10T00:57:43;101602.91;;;-1.16;72.02
6216;BME280;3141;49.234;9.326;2023-02-10T00:58:26;101607.25;;;-1.18;71.81
6216;BME280;3141;49.234;9.326;2023-02-10T00:59:10;101614.16;;;-1.17;71.69
6216;BME280;3141;49.234;9.326;2023-02-10T00:59:53;101612.38;;;-1.15;72.01
6216;BME280;3141;49.234;9.326;2023-02-10T01:00:36;101611.63;;;-1.20;71.62
6216;BME280;3141;49.234;9.326;2023-02-10T01:01:18;101616.94;;;-1.25;71.61
6216;BME280;3141;49.234;9.326;2023-02-10T01:02:00;101614.31;;;-1.23;71.85
6216;BME280;3141;49.234;9.326;2023-02-10T01:02:43;101615.09;;;-1.20;71.79
6216;BME280;3141;49.234;9.326;2023-02-10T01:03:25;101615.91;;;-1.17;71.71
6216;BME280;3141;49.234;9.326;2023-02-10T01:04:07;101610.72;;;-1.19;71.54
6216;BME280;3141;49.234;9.326;2023-02-10T01:04:50;101611.78;;;-1.26;71.74
6216;BME280;3141;49.234;9.326;2023-02-10T01:05:32;101621.16;;;-1.21;71.76
6216;BME280;3141;49.234;9.326;2023-02-10T01:06:14;101617.59;;;-1.17;71.57
6216;BME280;3141;49.234;9.326;2023-02-10T01:06:57;101619.34;;;-1.17;71.40
6216;BME280;3141;49.234;9.326;2023-02-10T01:07:39;101623.75;;;-1.21;70.87
6216;BME280;3141;49.234;9.326;2023-02-10T01:08:22;101626.28;;;-1.19;71.04
6216;BME280;3141;49.234;9.326;2023-02-10T01:09:04;101621.25;;;-1.25;71.19
6216;BME280;3141;49.234;9.326;2023-02-10T01:09:47;101622.94;;;-1.23;71.42
6216;BME280;3141;49.234;9.326;2023-02-10T01:10:32;101629.03;;;-1.25;71.75
6216;BME280;3141;49.234;9.326;2023-02-10T01:11:16;101624.81;;;-1.29;71.87
6216;BME280;3141;49.234;9.326;2023-02-10T01:12:00;101632.47;;;-1.23;72.04
6216;BME280;3141;49.234;9.326;2023-02-10T01:12:42;101626.53;;;-1.28;71.92
6216;BME280;3141;49.234;9.326;2023-02-10T01:13:24;101626.44;;;-1.25;71.70
6216;BME280;3141;49.234;9.326;2023-02-10T01:14:07;101625.66;;;-1.29;71.92
6216;BME280;3141;49.234;9.326;2023-02-10T01:14:49;101626.53;;;-1.28;71.95
6216;BME280;3141;49.234;9.326;2023-02-10T01:15:32;101632.53;;;-1.26;71.88
6216;BME280;3141;49.234;9.326;2023-02-10T01:16:15;101625.59;;;-1.26;71.68
6216;BME280;3141;49.234;9.326;2023-02-10T01:16:58;101634.28;;;-1.27;72.04
6216;BME280;3141;49.234;9.326;2023-02-10T01:17:41;101630.81;;;-1.27;72.59
6216;BME280;3141;49.234;9.326;2023-02-10T01:18:23;101633.44;;;-1.29;72.03
6216;BME280;3141;49.234;9.326;2023-02-10T01:19:06;101629.09;;;-1.27;72.07
6216;BME280;3141;49.234;9.326;2023-02-10T01:19:48;101636.81;;;-1.25;72.27
6216;BME280;3141;49.234;9.326;2023-02-10T01:20:33;101632.53;;;-1.28;71.99
6216;BME280;3141;49.234;9.326;2023-02-10T01:21:18;101633.47;;;-1.30;72.49
6216;BME280;3141;49.234;9.326;2023-02-10T01:22:00;101631.94;;;-1.39;72.45
6216;BME280;3141;49.234;9.326;2023-02-10T01:22:43;101633.75;;;-1.42;72.79
6216;BME280;3141;49.234;9.326;2023-02-10T01:23:25;101635.38;;;-1.37;72.86
6216;BME280;3141;49.234;9.326;2023-02-10T01:24:07;101639.63;;;-1.34;72.75
6216;BME280;3141;49.234;9.326;2023-02-10T01:24:51;101633.56;;;-1.33;72.71
6216;BME280;3141;49.234;9.326;2023-02-10T01:25:34;101643.06;;;-1.34;72.08
6216;BME280;3141;49.234;9.326;2023-02-10T01:26:17;101639.66;;;-1.36;72.52
6216;BME280;3141;49.234;9.326;2023-02-10T01:26:59;101639.81;;;-1.42;72.52
6216;BME280;3141;49.234;9.326;2023-02-10T01:27:42;101634.63;;;-1.42;72.59
6216;BME280;3141;49.234;9.326;2023-02-10T01:28:24;101638.94;;;-1.42;72.94
6216;BME280;3141;49.234;9.326;2023-02-10T01:29:06;101633.00;;;-1.47;73.00
6216;BME280;3141;49.234;9.326;2023-02-10T01:29:49;101628.75;;;-1.51;73.06
6216;BME280;3141;49.234;9.326;2023-02-10T01:30:31;101634.91;;;-1.57;73.56
6216;BME280;3141;49.234;9.326;2023-02-10T01:31:16;101646.69;;;-1.41;73.52
6216;BME280;3141;49.234;9.326;2023-02-10T01:31:59;101630.22;;;-1.40;72.99
6216;BME280;3141;49.234;9.326;2023-02-10T01:32:41;101634.84;;;-1.52;73.25
6216;BME280;3141;49.234;9.326;2023-02-10T01:33:24;101644.50;;;-1.60;73.62
6216;BME280;3141;49.234;9.326;2023-02-10T01:34:06;101630.66;;;-1.59;74.04
6216;BME280;3141;49.234;9.326;2023-02-10T01:34:48;101632.34;;;-1.58;73.71
6216;BME280;3141;49.234;9.326;2023-02-10T01:35:31;101634.88;;;-1.54;73.50
6216;BME280;3141;49.234;9.326;2023-02-10T01:36:15;101635.78;;;-1.56;73.69
6216;BME280;3141;49.234;9.326;2023-02-10T01:36:58;101632.28;;;-1.55;73.32
6216;BME280;3141;49.234;9.326;2023-02-10T01:37:40;101629.69;;;-1.54;73.61
6216;BME280;3141;49.234;9.326;2023-02-10T01:38:23;101632.41;;;-1.60;74.00
6216;BME280;3141;49.234;9.326;2023-02-10T01:39:05;101634.19;;;-1.63;73.67
6216;BME280;3141;49.234;9.326;2023-02-10T01:39:47;101635.00;;;-1.60;74.02
6216;BME280;3141;49.234;9.326;2023-02-10T01:40:30;101635.78;;;-1.56;73.64
6216;BME280;3141;49.234;9.326;2023-02-10T01:41:14;101629.09;;;-1.66;74.28
6216;BME280;3141;49.234;9.326;2023-02-10T01:41:56;101639.38;;;-1.63;74.53
6216;BME280;3141;49.234;9.326;2023-02-10T01:42:39;101635.81;;;-1.58;74.40
6216;BME280;3141;49.234;9.326;2023-02-10T01:43:24;101634.00;;;-1.54;74.38
6216;BME280;3141;49.234;9.326;2023-02-10T01:45:34;101637.47;;;-1.55;74.20
6216;BME280;3141;49.234;9.326;2023-02-10T01:46:16;101638.19;;;-1.47;74.30
6216;BME280;3141;49.234;9.326;2023-02-10T01:46:59;101644.13;;;-1.42;73.75
6216;BME280;3141;49.234;9.326;2023-02-10T01:47:42;101644.38;;;-1.54;73.82
6216;BME280;3141;49.234;9.326;2023-02-10T01:48:26;101642.81;;;-1.61;73.78
6216;BME280;3141;49.234;9.326;2023-02-10T01:49:11;101646.16;;;-1.56;74.00
6216;BME280;3141;49.234;9.326;2023-02-10T01:49:56;101646.94;;;-1.53;73.35
6216;BME280;3141;49.234;9.326;2023-02-10T01:50:47;101645.25;;;-1.54;73.45
6216;BME280;3141;49.234;9.326;2023-02-10T01:51:36;101645.31;;;-1.58;73.14
6216;BME280;3141;49.234;9.326;2023-02-10T01:52:24;101647.06;;;-1.57;73.24
6216;BME280;3141;49.234;9.326;2023-02-10T01:53:09;101650.41;;;-1.52;73.02
6216;BME280;3141;49.234;9.326;2023-02-10T01:53:52;101652.88;;;-1.48;73.02
6216;BME280;3141;49.234;9.326;2023-02-10T01:54:49;101650.44;;;-1.54;72.54
6216;BME280;3141;49.234;9.326;2023-02-10T01:55:35;101653.19;;;-1.61;73.15
6216;BME280;3141;49.234;9.326;2023-02-10T01:56:19;101642.00;;;-1.65;73.35
6216;BME280;3141;49.234;9.326;2023-02-10T01:57:01;101645.50;;;-1.66;73.41
6216;BME280;3141;49.234;9.326;2023-02-10T01:57:45;101649.91;;;-1.69;74.03
6216;BME280;3141;49.234;9.326;2023-02-10T01:58:29;101653.28;;;-1.67;73.60
6216;BME280;3141;49.234;9.326;2023-02-10T01:59:14;101641.13;;;-1.64;73.81
6216;BME280;3141;49.234;9.326;2023-02-10T01:59:58;101648.84;;;-1.61;73.37
6216;BME280;3141;49.234;9.326;2023-02-10T02:00:42;101648.84;;;-1.61;73.41
6216;BME280;3141;49.234;9.326;2023-02-10T02:01:24;101649.59;;;-1.56;73.14
6216;BME280;3141;49.234;9.326;2023-02-10T02:02:08;101647.81;;;-1.52;72.98
6216;BME280;3141;49.234;9.326;2023-02-10T02:02:50;101650.41;;;-1.52;72.66
6216;BME280;3141;49.234;9.326;2023-02-10T02:03:33;101650.44;;;-1.55;72.90
6216;BME280;3141;49.234;9.326;2023-02-10T02:04:16;101648.75;;;-1.56;72.98
6216;BME280;3141;49.234;9.326;2023-02-10T02:05:00;101658.03;;;-1.46;72.65
6216;BME280;3141;49.234;9.326;2023-02-10T02:05:43;101652.84;;;-1.46;72.61
6216;BME280;3141;49.234;9.326;2023-02-10T02:06:26;101652.06;;;-1.50;72.20
6216;BME280;3141;49.234;9.326;2023-02-10T02:07:08;101649.44;;;-1.48;72.21
6216;BME280;3141;49.234;9.326;2023-02-10T02:07:50;101654.63;;;-1.48;72.03
6216;BME280;3141;49.234;9.326;2023-02-10T02:08:33;101653.91;;;-1.55;72.02
6216;BME280;3141;49.234;9.326;2023-02-10T02:09:15;101648.69;;;-1.53;71.98
6216;BME280;3141;49.234;9.326;2023-02-10T02:09:59;101651.28;;;-1.53;71.54
6216;BME280;3141;49.234;9.326;2023-02-10T02:13:16;101654.72;;;-1.53;71.34
6216;BME280;3141;49.234;9.326;2023-02-10T02:14:34;101657.28;;;-1.51;71.41
6216;BME280;3141;49.234;9.326;2023-02-10T02:15:27;101653.03;;;-1.55;71.68
6216;BME280;3141;49.234;9.326;2023-02-10T02:16:22;101644.50;;;-1.60;71.59
6216;BME280;3141;49.234;9.326;2023-02-10T02:18:47;101657.63;;;-1.68;71.88
6216;BME280;3141;49.234;9.326;2023-02-10T02:21:32;101655.00;;;-1.66;72.05
6216;BME280;3141;49.234;9.326;2023-02-10T02:22:36;101655.88;;;-1.66;71.77
6216;BME280;3141;49.234;9.326;2023-02-10T02:26:48;101646.91;;;-1.92;73.44
6216;BME280;3141;49.234;9.326;2023-02-10T02:28:34;101648.47;;;-1.85;73.50
6216;BME280;3141;49.234;9.326;2023-02-10T02:32:21;101653.75;;;-1.88;73.76
6216;BME280;3141;49.234;9.326;2023-02-10T02:34:17;101646.03;;;-1.93;74.05
6216;BME280;3141;49.234;9.326;2023-02-10T02:35:09;101652.81;;;-1.86;73.92
6216;BME280;3141;49.234;9.326;2023-02-10T02:36:00;101659.50;;;-1.76;73.31
6216;BME280;3141;49.234;9.326;2023-02-10T02:36:58;101659.47;;;-1.74;73.04
6216;BME280;3141;49.234;9.326;2023-02-10T02:37:43;101651.94;;;-1.86;72.92
6216;BME280;3141;49.234;9.326;2023-02-10T02:38:28;101642.72;;;-1.99;73.46
6216;BME280;3141;49.234;9.326;2023-02-10T02:39:10;101649.69;;;-2.03;73.85
6216;BME280;3141;49.234;9.326;2023-02-10T02:39:53;101651.41;;;-2.03;73.89
6216;BME280;3141;49.234;9.326;2023-02-10T02:40:37;101651.44;;;-2.05;74.04
6216;BME280;3141;49.234;9.326;2023-02-10T02:41:24;101648.88;;;-2.06;74.08
6216;BME280;3141;49.234;9.326;2023-02-10T02:42:21;101643.78;;;-2.09;73.77
6216;BME280;3141;49.234;9.326;2023-02-10T02:43:04;101646.38;;;-2.09;73.99
6216;BME280;3141;49.234;9.326;2023-02-10T02:43:47;101645.59;;;-2.14;73.52
6216;BME280;3141;49.234;9.326;2023-02-10T02:44:29;101650.81;;;-2.16;74.04
6216;BME280;3141;49.234;9.326;2023-02-10T02:45:16;101649.06;;;-2.15;74.30
6216;BME280;3141;49.234;9.326;2023-02-10T02:46:09;101649.91;;;-2.15;74.50
6216;BME280;3141;49.234;9.326;2023-02-10T02:47:00;101645.41;;;-2.04;74.12
6216;BME280;3141;49.234;9.326;2023-02-10T02:49:38;101651.03;;;-1.84;72.88
6216;BME280;3141;49.234;9.326;2023-02-10T02:51:23;101653.66;;;-1.85;73.13
6216;BME280;3141;49.234;9.326;2023-02-10T02:52:12;101660.44;;;-1.78;73.00
6216;BME280;3141;49.234;9.326;2023-02-10T02:54:14;101656.22;;;-1.84;72.69
6216;BME280;3141;49.234;9.326;2023-02-10T02:55:18;101659.53;;;-1.77;72.26
6216;BME280;3141;49.234;9.326;2023-02-10T02:57:45;101658.91;;;-1.88;72.61
6216;BME280;3141;49.234;9.326;2023-02-10T03:03:24;101665.00;;;-1.91;72.32
6216;BME280;3141;49.234;9.326;2023-02-10T03:04:07;101664.19;;;-1.94;72.45
6216;BME280;3141;49.234;9.326;2023-02-10T03:04:50;101669.31;;;-1.91;72.24
6216;BME280;3141;49.234;9.326;2023-02-10T03:05:33;101671.06;;;-1.90;72.47
6216;BME280;3141;49.234;9.326;2023-02-10T03:06:15;101669.38;;;-1.94;72.57
6216;BME280;3141;49.234;9.326;2023-02-10T03:06:57;101668.53;;;-1.95;72.46
6216;BME280;3141;49.234;9.326;2023-02-10T03:07:40;101664.34;;;-2.02;72.19
6216;BME280;3141;49.234;9.326;2023-02-10T03:08:22;101666.88;;;-1.97;72.60
6216;BME280;3141;49.234;9.326;2023-02-10T03:09:05;101664.13;;;-1.90;72.31
6216;BME280;3141;49.234;9.326;2023-02-10T03:09:47;101664.06;;;-1.87;72.13
6216;BME280;3141;49.234;9.326;2023-02-10T03:10:29;101665.97;;;-1.96;72.11
6216;BME280;3141;49.234;9.326;2023-02-10T03:11:12;101671.22;;;-1.99;71.87
6216;BME280;3141;49.234;9.326;2023-02-10T03:11:54;101668.59;;;-1.98;72.08
6216;BME280;3141;49.234;9.326;2023-02-10T03:12:37;101662.50;;;-1.95;72.48
6216;BME280;3141;49.234;9.326;2023-02-10T03:13:19;101662.50;;;-1.95;72.84
6216;BME280;3141;49.234;9.326;2023-02-10T03:14:01;101660.75;;;-1.95;72.69
6216;BME280;3141;49.234;9.326;2023-02-10T03:14:44;101662.38;;;-1.89;72.69
6216;BME280;3141;49.234;9.326;2023-02-10T03:15:26;101664.09;;;-1.88;72.51
6216;BME280;3141;49.234;9.326;2023-02-10T03:16:08;101664.06;;;-1.87;72.13
6216;BME280;3141;49.234;9.326;2023-02-10T03:16:51;101662.28;;;-1.83;72.39
6216;BME280;3141;49.234;9.326;2023-02-10T03:17:35;101669.09;;;-1.79;71.99
6216;BME280;3141;49.234;9.326;2023-02-10T03:18:17;101662.22;;;-1.80;71.77
6216;BME280;3141;49.234;9.326;2023-02-10T03:18:59;101666.81;;;-1.96;72.24
6216;BME280;3141;49.234;9.326;2023-02-10T03:19:42;101665.84;;;-1.89;72.06
6216;BME280;3141;49.234;9.326;2023-02-10T03:20:24;101666.88;;;-1.97;72.54
6216;BME280;3141;49.234;9.326;2023-02-10T03:21:07;101672.81;;;-1.92;72.22
6216;BME280;3141;49.234;9.326;2023-02-10T03:21:49;101674.56;;;-1.94;72.61
6216;BME280;3141;49.234;9.326;2023-02-10T03:22:31;101667.66;;;-1.94;72.98
6216;BME280;3141;49.234;9.326;2023-02-10T03:23:14;101676.22;;;-1.90;72.61
6216;BME280;3141;49.234;9.326;2023-02-10T03:23:56;101671.84;;;-1.87;72.72
6216;BME280;3141;49.234;9.326;2023-02-10T03:24:38;101677.88;;;-1.86;72.83
6216;BME280;3141;49.234;9.326;2023-02-10T03:25:21;101674.47;;;-1.88;72.59
6216;BME280;3141;49.234;9.326;2023-02-10T03:26:03;101676.13;;;-1.86;72.20
6216;BME280;3141;49.234;9.326;2023-02-10T03:26:46;101684.84;;;-1.88;72.55
6216;BME280;3141;49.234;9.326;2023-02-10T03:27:28;101682.94;;;-1.80;72.94
6216;BME280;3141;49.234;9.326;2023-02-10T03:28:11;101676.81;;;-1.76;71.96
6216;BME280;3141;49.234;9.326;2023-02-10T03:28:54;101689.72;;;-1.73;71.81
6216;BME280;3141;49.234;9.326;2023-02-10T03:29:36;101677.69;;;-1.77;72.16
6216;BME280;3141;49.234;9.326;2023-02-10T03:30:19;101676.81;;;-1.76;72.18
6216;BME280;3141;49.234;9.326;2023-02-10T03:31:03;101684.53;;;-1.73;71.69
6216;BME280;3141;49.234;9.326;2023-02-10T03:31:46;101684.47;;;-1.70;71.64
6216;BME280;3141;49.234;9.326;2023-02-10T03:32:28;101680.22;;;-1.74;71.42
6216;BME280;3141;49.234;9.326;2023-02-10T03:33:10;101686.38;;;-1.78;71.33
6216;BME280;3141;49.234;9.326;2023-02-10T03:33:53;101689.03;;;-1.83;71.43
6216;BME280;3141;49.234;9.326;2023-02-10T03:34:35;101684.72;;;-1.82;71.41
6216;BME280;3141;49.234;9.326;2023-02-10T03:35:17;101690.81;;;-1.85;71.50
6216;BME280;3141;49.234;9.326;2023-02-10T03:36:00;101690.88;;;-1.89;71.85
6216;BME280;3141;49.234;9.326;2023-02-10T03:36:43;101691.72;;;-1.87;72.09
6216;BME280;3141;49.234;9.326;2023-02-10T03:37:25;101690.06;;;-1.91;72.23
6216;BME280;3141;49.234;9.326;2023-02-10T03:38:07;101687.44;;;-1.88;72.42
6216;BME280;3141;49.234;9.326;2023-02-10T03:38:49;101685.66;;;-1.88;71.96
6216;BME280;3141;49.234;9.326;2023-02-10T03:39:32;101689.09;;;-1.86;72.16
6216;BME280;3141;49.234;9.326;2023-02-10T03:40:14;101695.13;;;-1.85;71.92
6216;BME280;3141;49.234;9.326;2023-02-10T03:40:57;101688.34;;;-1.92;72.24
6216;BME280;3141;49.234;9.326;2023-02-10T03:41:39;101691.94;;;-1.99;72.66
6216;BME280;3141;49.234;9.326;2023-02-10T03:42:21;101687.72;;;-2.05;72.59
6216;BME280;3141;49.234;9.326;2023-02-10T03:43:04;101692.84;;;-2.02;72.71
6216;BME280;3141;49.234;9.326;2023-02-10T03:43:46;101694.50;;;-1.98;72.73
6216;BME280;3141;49.234;9.326;2023-02-10T03:44:28;101692.81;;;-1.99;72.22
6216;BME280;3141;49.234;9.326;2023-02-10T03:45:11;101697.13;;;-1.99;72.56
6216;BME280;3141;49.234;9.326;2023-02-10T03:45:53;101694.50;;;-1.98;72.25
6216;BME280;3141;49.234;9.326;2023-02-10T03:46:35;101697.25;;;-2.05;72.33
6216;BME280;3141;49.234;9.326;2023-02-10T03:47:18;101691.31;;;-2.12;72.57
6216;BME280;3141;49.234;9.326;2023-02-10T03:48:01;101689.56;;;-2.11;72.72
6216;BME280;3141;49.234;9.326;2023-02-10T03:48:44;101698.25;;;-2.12;73.12
6216;BME280;3141;49.234;9.326;2023-02-10T03:49:26;101686.13;;;-2.12;73.25
6216;BME280;3141;49.234;9.326;2023-02-10T03:50:09;101695.66;;;-2.14;73.04
6216;BME280;3141;49.234;9.326;2023-02-10T03:50:51;101691.47;;;-2.19;72.86
6216;BME280;3141;49.234;9.326;2023-02-10T03:51:33;101695.69;;;-2.15;73.15
6216;BME280;3141;49.234;9.326;2023-02-10T03:52:16;101694.78;;;-2.13;73.45
6216;BME280;3141;49.234;9.326;2023-02-10T03:52:58;101693.16;;;-2.18;73.36
6216;BME280;3141;49.234;9.326;2023-02-10T03:53:41;101686.31;;;-2.22;73.67
6216;BME280;3141;49.234;9.326;2023-02-10T03:54:23;101690.69;;;-2.24;73.85
6216;BME280;3141;49.234;9.326;2023-02-10T03:55:05;101689.03;;;-2.28;73.78
6216;BME280;3141;49.234;9.326;2023-02-10T03:55:48;101687.28;;;-2.26;73.97
6216;BME280;3141;49.234;9.326;2023-02-10T03:56:30;101688.94;;;-2.24;73.70
6216;BME280;3141;49.234;9.326;2023-02-10T03:57:13;101688.06;;;-2.23;73.30
6216;BME280;3141;49.234;9.326;2023-02-10T03:57:55;101689.94;;;-2.33;73.94
6216;BME280;3141;49.234;9.326;2023-02-10T03:58:38;101684.75;;;-2.33;73.78
6216;BME280;3141;49.234;9.326;2023-02-10T03:59:20;101688.19;;;-2.30;74.04
6216;BME280;3141;49.234;9.326;2023-02-10T04:00:03;101684.75;;;-2.33;73.99
6216;BME280;3141;49.234;9.326;2023-02-10T04:00:45;101687.41;;;-2.36;73.98
6216;BME280;3141;49.234;9.326;2023-02-10T04:01:28;101692.63;;;-2.37;73.86
6216;BME280;3141;49.234;9.326;2023-02-10T04:02:10;101694.41;;;-2.41;73.79
6216;BME280;3141;49.234;9.326;2023-02-10T04:02:52;101684.13;;;-2.44;73.99
6216;BME280;3141;49.234;9.326;2023-02-10T04:03:35;101691.78;;;-2.39;74.16
6216;BME280;3141;49.234;9.326;2023-02-10T04:04:17;101688.41;;;-2.43;74.18
6216;BME280;3141;49.234;9.326;2023-02-10T04:04:59;101690.09;;;-2.40;74.33
6216;BME280;3141;49.234;9.326;2023-02-10T04:05:42;101691.78;;;-2.39;74.40
6216;BME280;3141;49.234;9.326;2023-02-10T04:06:25;101695.34;;;-2.45;74.24
6216;BME280;3141;49.234;9.326;2023-02-10T04:07:07;101686.69;;;-2.44;74.26
6216;BME280;3141;49.234;9.326;2023-02-10T04:07:49;101683.34;;;-2.49;74.49
6216;BME280;3141;49.234;9.326;2023-02-10T04:08:32;101684.94;;;-2.43;74.52
6216;BME280;3141;49.234;9.326;2023-02-10T04:09:14;101689.31;;;-2.47;74.10
6216;BME280;3141;49.234;9.326;2023-02-10T04:09:57;101679.84;;;-2.48;74.04
6216;BME280;3141;49.234;9.326;2023-02-10T04:10:39;101687.56;;;-2.45;74.35
6216;BME280;3141;49.234;9.326;2023-02-10T04:11:21;101685.81;;;-2.43;73.85
6216;BME280;3141;49.234;9.326;2023-02-10T04:12:04;101694.28;;;-2.35;73.69
6216;BME280;3141;49.234;9.326;2023-02-10T04:12:47;101683.94;;;-2.33;73.77
6216;BME280;3141;49.234;9.326;2023-02-10T04:13:30;101694.22;;;-2.30;73.52
6216;BME280;3141;49.234;9.326;2023-02-10T04:14:12;101687.19;;;-2.23;73.02
6216;BME280;3141;49.234;9.326;2023-02-10T04:14:55;101691.44;;;-2.18;72.80
6216;BME280;3141;49.234;9.326;2023-02-10T04:15:37;101695.72;;;-2.17;72.49
6216;BME280;3141;49.234;9.326;2023-02-10T04:16:19;101699.09;;;-2.13;72.16
6216;BME280;3141;49.234;9.326;2023-02-10T04:17:04;101698.22;;;-2.11;72.11
6216;BME280;3141;49.234;9.326;2023-02-10T04:17:46;101702.47;;;-2.08;72.06
6216;BME280;3141;49.234;9.326;2023-02-10T04:18:29;101692.09;;;-2.08;71.64
6216;BME280;3141;49.234;9.326;2023-02-10T04:19:11;101700.66;;;-2.03;71.56
6216;BME280;3141;49.234;9.326;2023-02-10T04:19:54;101696.63;;;-2.18;71.68
6216;BME280;3141;49.234;9.326;2023-02-10T04:20:36;101695.03;;;-2.26;72.06